Time;durP1;ratioP1;P1;durP2;ratioP2;P2;SDS_P1;SDS_P2;PMS_P1;PMS_P2;Temp;Humidity;BMP_temperature;BMP_pressure;BME280_temperature;BME280_humidity;BME280_pressure;Samples;Min_cycle;Max_cycle;Signal;HPM_P1;HPM_P2
2023/09/17 00:00:20;;;;;;;0.37;0.37;;;;;;;18.84;93.13;100367.28;4989317;28;20190;-82
2023/09/17 00:02:46;;;;;;;0.00;0.00;;;;;;;18.93;92.26;100364.25;4988979;28;20232;-82
2023/09/17 00:05:11;;;;;;;0.20;0.10;;;;;;;18.91;91.92;100359.09;4991126;28;20189;-81
2023/09/17 00:07:37;;;;;;;0.00;0.00;;;;;;;18.86;91.87;100356.63;4992755;28;20213;-80
2023/09/17 00:10:03;;;;;;;0.00;0.00;;;;;;;18.94;91.87;100352.81;4982995;28;20188;-82
2023/09/17 00:12:28;;;;;;;0.60;0.60;;;;;;;18.91;91.73;100361.06;4992790;28;20219;-81
2023/09/17 00:14:54;;;;;;;0.00;0.00;;;;;;;19.09;91.69;100366.88;4988776;28;20271;-83
2023/09/17 00:17:19;;;;;;;0.00;0.00;;;;;;;19.17;91.38;100365.84;4987567;28;20185;-82
2023/09/17 00:19:44;;;;;;;0.00;0.00;;;;;;;19.08;91.02;100363.31;4989360;28;20212;-81
2023/09/17 00:22:14;;;;;;;0.00;0.00;;;;;;;18.97;91.13;100352.09;4987400;28;20217;-82
2023/09/17 00:24:40;;;;;;;0.80;0.80;;;;;;;18.96;91.00;100352.47;4988699;28;20541;-80
2023/09/17 00:27:05;;;;;;;0.10;0.10;;;;;;;18.83;91.05;100351.84;4990615;28;20243;-81
2023/09/17 00:29:30;;;;;;;0.00;0.00;;;;;;;19.06;90.68;100357.34;4990040;28;20208;-82
2023/09/17 00:31:56;;;;;;;0.00;0.00;;;;;;;19.24;89.71;100366.78;4983907;28;20190;-80
2023/09/17 00:34:21;;;;;;;0.00;0.00;;;;;;;18.52;90.00;100319.66;4992402;28;20547;-82
2023/09/17 00:36:46;;;;;;;0.00;0.00;;;;;;;18.32;92.62;100335.47;4990706;28;20185;-82
2023/09/17 00:39:12;;;;;;;0.00;0.00;;;;;;;18.38;93.92;100338.75;4988150;28;20212;-82
2023/09/17 00:41:37;;;;;;;0.10;0.10;;;;;;;18.41;93.86;100332.47;4981001;28;20268;-80
2023/09/17 00:44:02;;;;;;;0.00;0.00;;;;;;;18.44;94.01;100351.09;4988066;28;20225;-80
2023/09/17 00:46:31;;;;;;;0.00;0.00;;;;;;;18.47;93.43;100346.78;4980677;28;20193;-81
2023/09/17 00:48:57;;;;;;;0.87;0.40;;;;;;;18.32;93.39;100332.69;4993699;28;20208;-80
2023/09/17 00:51:22;;;;;;;0.00;0.00;;;;;;;18.15;93.77;100327.63;4984265;28;20670;-80
2023/09/17 00:53:48;;;;;;;0.10;0.10;;;;;;;18.19;93.98;100336.00;4984963;28;20178;-80
2023/09/17 00:56:15;;;;;;;0.00;0.00;;;;;;;18.32;94.17;100335.47;4986011;28;20266;-80
2023/09/17 00:58:41;;;;;;;0.00;0.00;;;;;;;18.49;93.80;100338.94;4985830;28;20216;-81
2023/09/17 01:01:08;;;;;;;0.00;0.00;;;;;;;18.52;93.71;100332.69;4985770;28;20223;-80
2023/09/17 01:03:36;;;;;;;0.00;0.00;;;;;;;18.76;93.40;100353.69;4985828;28;20204;-80
2023/09/17 01:06:04;;;;;;;0.00;0.00;;;;;;;18.68;92.93;100336.16;4985751;28;20249;-82
2023/09/17 01:08:30;;;;;;;0.00;0.00;;;;;;;18.64;92.69;100332.50;4986713;28;20204;-80
2023/09/17 01:10:57;;;;;;;0.00;0.00;;;;;;;18.72;92.83;100334.25;4984739;28;20244;-80
2023/09/17 01:13:23;;;;;;;0.00;0.00;;;;;;;18.80;92.95;100337.91;4982061;28;20186;-80
2023/09/17 01:15:50;;;;;;;0.00;0.00;;;;;;;18.92;92.64;100335.75;4983120;28;20635;-80
2023/09/17 01:18:18;;;;;;;0.00;0.00;;;;;;;19.00;91.30;100337.50;4986369;28;20213;-81
2023/09/17 01:21:01;;;;;;;0.00;0.00;;;;;;;19.09;89.99;100333.66;4985767;28;20189;-80
2023/09/17 01:23:41;;;;;;;0.00;0.00;;;;;;;19.13;89.28;100331.75;4982855;28;20292;-81
2023/09/17 01:26:27;;;;;;;0.00;0.00;;;;;;;19.24;88.40;100329.94;4985976;28;20188;-80
2023/09/17 01:28:59;;;;;;;0.00;0.00;;;;;;;19.13;88.30;100327.03;4984406;28;20197;-81
2023/09/17 01:31:24;;;;;;;0.63;0.63;;;;;;;19.08;88.45;100324.53;4983877;28;20277;-82
2023/09/17 01:33:51;;;;;;;0.30;0.30;;;;;;;19.00;88.23;100328.38;4991769;28;20222;-82
2023/09/17 01:36:23;;;;;;;0.60;0.60;;;;;;;19.00;87.83;100323.66;4992273;28;20193;-81
2023/09/17 01:38:54;;;;;;;0.00;0.00;;;;;;;18.97;87.51;100329.13;5000115;28;20200;-81
2023/09/17 01:41:20;;;;;;;0.63;0.63;;;;;;;18.94;87.32;100325.13;4987650;28;20191;-82
2023/09/17 01:43:46;;;;;;;0.10;0.10;;;;;;;18.89;87.34;100324.63;4979610;28;20193;-82
2023/09/17 01:46:12;;;;;;;0.00;0.00;;;;;;;18.73;87.69;100317.25;4978082;28;20297;-82
2023/09/17 01:48:38;;;;;;;0.40;0.40;;;;;;;18.63;88.20;100317.88;4986262;28;20253;-82
2023/09/17 01:51:05;;;;;;;0.10;0.10;;;;;;;18.57;88.78;100327.63;4989250;28;20193;-82
2023/09/17 01:53:32;;;;;;;0.33;0.33;;;;;;;18.56;89.06;100328.81;4983031;28;20177;-82
2023/09/17 01:55:57;;;;;;;0.60;0.60;;;;;;;18.53;89.49;100326.78;4989611;28;20244;-82
2023/09/17 01:58:23;;;;;;;0.10;0.10;;;;;;;18.66;89.45;100338.47;4987856;28;20217;-80
2023/09/17 02:00:52;;;;;;;18.57;3.40;;;;;;;18.77;89.22;100339.47;4984783;28;20188;-81
2023/09/17 02:03:18;;;;;;;0.00;0.00;;;;;;;18.85;89.15;100332.88;4982170;28;20201;-80
2023/09/17 02:05:43;;;;;;;0.00;0.00;;;;;;;18.87;88.83;100338.84;4988408;28;20196;-81
2023/09/17 02:08:09;;;;;;;0.00;0.00;;;;;;;18.92;88.79;100329.44;4986580;28;20674;-82
2023/09/17 02:10:34;;;;;;;0.00;0.00;;;;;;;18.91;88.99;100328.63;4986500;28;20185;-83
2023/09/17 02:12:59;;;;;;;0.00;0.00;;;;;;;19.12;88.64;100339.28;4985326;28;20716;-80
2023/09/17 02:15:24;;;;;;;0.00;0.00;;;;;;;19.20;88.17;100332.66;4987850;28;20240;-81
2023/09/17 02:17:51;;;;;;;0.00;0.00;;;;;;;19.22;87.86;100332.28;4979331;28;20220;-82
2023/09/17 02:20:16;;;;;;;0.00;0.00;;;;;;;19.23;87.50;100314.47;4989116;28;20181;-82
2023/09/17 02:22:42;;;;;;;0.00;0.00;;;;;;;19.40;87.24;100332.56;4987075;28;20192;-80
2023/09/17 02:25:07;;;;;;;0.00;0.00;;;;;;;19.30;86.27;100320.94;4984305;28;20181;-82
2023/09/17 02:27:34;;;;;;;0.00;0.00;;;;;;;19.01;86.76;100305.06;4985312;28;20587;-81
2023/09/17 02:30:00;;;;;;;0.00;0.00;;;;;;;18.97;87.14;100318.06;4983866;28;20674;-82
2023/09/17 02:32:25;;;;;;;0.00;0.00;;;;;;;19.12;87.08;100330.16;4983354;28;20243;-82
2023/09/17 02:34:51;;;;;;;0.00;0.00;;;;;;;19.38;86.34;100332.13;4986546;28;20180;-81
2023/09/17 02:37:16;;;;;;;0.00;0.00;;;;;;;19.27;86.51;100324.47;4980360;28;20670;-82
2023/09/17 02:39:41;;;;;;;0.00;0.00;;;;;;;19.12;86.76;100313.53;4988131;28;20188;-83
2023/09/17 02:42:07;;;;;;;0.00;0.00;;;;;;;18.92;86.98;100308.06;4980048;28;20575;-80
2023/09/17 02:44:32;;;;;;;0.00;0.00;;;;;;;17.37;91.18;100262.44;4987231;28;20281;-81
2023/09/17 02:46:57;;;;;;;0.00;0.00;;;;;;;17.82;93.27;100301.31;4984658;28;20612;-81
2023/09/17 02:49:23;;;;;;;0.20;0.20;;;;;;;17.76;94.61;100301.94;4983079;28;20213;-80
2023/09/17 02:51:50;;;;;;;11.83;11.27;;;;;;;17.70;95.03;100306.19;4984845;28;20182;-81
2023/09/17 02:54:15;;;;;;;0.00;0.00;;;;;;;17.74;95.12;100307.84;4988050;28;20221;-81
2023/09/17 02:56:42;;;;;;;1.40;0.83;;;;;;;17.62;95.43;100304.38;4979581;28;20184;-80
2023/09/17 02:59:07;;;;;;;0.00;0.00;;;;;;;17.49;95.64;100292.66;4982795;28;20210;-81
2023/09/17 03:01:32;;;;;;;0.00;0.00;;;;;;;17.49;95.78;100298.97;4984507;28;20241;-80
2023/09/17 03:03:58;;;;;;;0.00;0.00;;;;;;;17.15;97.28;100305.31;4984981;28;20240;-80
2023/09/17 03:06:23;;;;;;;0.30;0.30;;;;;;;17.40;97.21;100301.16;4979841;28;20260;-80
2023/09/17 03:08:48;;;;;;;0.03;0.03;;;;;;;17.33;97.42;100302.97;4985307;28;20201;-80
2023/09/17 03:11:17;;;;;;;0.10;0.10;;;;;;;17.20;98.37;100297.53;4987248;28;20279;-80
2023/09/17 03:13:44;;;;;;;0.47;0.47;;;;;;;17.14;99.35;100307.28;4987391;28;20173;-80
2023/09/17 03:16:12;;;;;;;0.57;0.57;;;;;;;17.05;100.00;100303.91;4984988;28;20265;-81
2023/09/17 03:18:38;;;;;;;0.00;0.00;;;;;;;17.01;100.00;100310.50;4982767;28;20208;-80
2023/09/17 03:21:07;;;;;;;0.00;0.00;;;;;;;17.06;100.00;100319.28;4985246;28;20216;-81
2023/09/17 03:23:33;;;;;;;0.10;0.10;;;;;;;17.05;100.00;100316.91;4980229;28;20208;-80
2023/09/17 03:26:00;;;;;;;0.10;0.10;;;;;;;17.06;100.00;100322.06;4982162;28;20182;-80
2023/09/17 03:28:26;;;;;;;0.00;0.00;;;;;;;17.14;100.00;100326.59;4980213;28;20204;-80
2023/09/17 03:30:51;;;;;;;0.00;0.00;;;;;;;17.23;100.00;100327.22;4985266;28;20567;-81
2023/09/17 03:33:16;;;;;;;0.00;0.00;;;;;;;17.34;100.00;100323.88;4978965;28;20238;-80
2023/09/17 03:35:42;;;;;;;0.00;0.00;;;;;;;17.12;100.00;100308.81;4976147;28;20190;-80
2023/09/17 03:38:07;;;;;;;1.57;1.50;;;;;;;17.20;100.00;100322.41;4985449;28;20737;-80
2023/09/17 03:40:33;;;;;;;0.00;0.00;;;;;;;17.12;100.00;100325.38;4985003;28;20177;-80
2023/09/17 03:42:59;;;;;;;0.10;0.10;;;;;;;17.29;100.00;100327.75;4982729;28;20181;-80
2023/09/17 03:45:24;;;;;;;0.20;0.20;;;;;;;17.09;100.00;100321.38;4980518;28;20284;-81
2023/09/17 03:47:50;;;;;;;0.13;0.13;;;;;;;16.93;100.00;100315.88;4981780;28;20280;-80
2023/09/17 03:50:16;;;;;;;0.00;0.00;;;;;;;17.02;100.00;100329.47;4984091;28;20647;-80
2023/09/17 03:52:45;;;;;;;0.00;0.00;;;;;;;17.25;100.00;100348.94;4985177;28;20188;-80
2023/09/17 03:55:12;;;;;;;0.00;0.00;;;;;;;17.42;100.00;100347.75;4984018;28;20659;-80
2023/09/17 03:57:38;;;;;;;0.00;0.00;;;;;;;17.41;100.00;100337.88;4985130;28;20267;-80
2023/09/17 04:00:10;;;;;;;0.00;0.00;;;;;;;17.30;100.00;100345.09;4992076;28;20328;-80
2023/09/17 04:02:36;;;;;;;0.00;0.00;;;;;;;16.76;100.00;100321.72;4987542;28;20169;-80
2023/09/17 04:05:08;;;;;;;0.13;0.13;;;;;;;16.56;100.00;100334.59;4989974;28;20745;-82
2023/09/17 04:07:34;;;;;;;0.00;0.00;;;;;;;16.49;100.00;100339.09;4987980;28;20205;-81
2023/09/17 04:09:59;;;;;;;0.00;0.00;;;;;;;16.54;100.00;100338.88;4990731;28;20184;-81
2023/09/17 04:12:24;;;;;;;0.00;0.00;;;;;;;16.62;100.00;100352.47;4984795;28;20182;-81
2023/09/17 04:14:50;;;;;;;0.00;0.00;;;;;;;16.62;100.00;100351.66;4993763;28;20647;-81
2023/09/17 04:17:16;;;;;;;0.00;0.00;;;;;;;16.72;100.00;100364.19;4984921;28;20181;-81
2023/09/17 04:19:41;;;;;;;0.00;0.00;;;;;;;16.61;100.00;100353.63;4990638;28;20192;-82
2023/09/17 04:22:07;;;;;;;0.00;0.00;;;;;;;16.97;100.00;100365.63;4983790;28;20189;-81
2023/09/17 04:24:32;;;;;;;0.00;0.00;;;;;;;16.77;100.00;100356.44;4991524;28;20225;-81
2023/09/17 04:26:57;;;;;;;0.00;0.00;;;;;;;16.91;100.00;100356.78;4979942;28;20202;-81
2023/09/17 04:29:23;;;;;;;0.00;0.00;;;;;;;16.99;100.00;100363.31;4987252;28;20348;-81
2023/09/17 04:31:49;;;;;;;0.00;0.00;;;;;;;16.85;100.00;100351.91;4985851;28;20659;-80
2023/09/17 04:34:15;;;;;;;0.00;0.00;;;;;;;16.91;100.00;100358.75;4986100;28;20192;-80
2023/09/17 04:36:40;;;;;;;0.00;0.00;;;;;;;16.89;100.00;100361.06;4986015;28;20651;-80
2023/09/17 04:39:09;;;;;;;0.00;0.00;;;;;;;16.93;100.00;100359.22;4983492;28;20248;-82
2023/09/17 04:41:34;;;;;;;0.00;0.00;;;;;;;17.63;100.00;100378.63;4982522;28;20190;-80
2023/09/17 04:44:00;;;;;;;0.00;0.00;;;;;;;17.68;100.00;100363.75;4984986;28;20733;-80
2023/09/17 04:46:26;;;;;;;0.00;0.00;;;;;;;17.47;100.00;100353.78;4987050;28;20239;-80
2023/09/17 04:48:51;;;;;;;0.00;0.00;;;;;;;17.43;100.00;100347.41;4984035;28;20674;-80
2023/09/17 04:51:16;;;;;;;0.00;0.00;;;;;;;17.56;100.00;100359.13;4982098;28;20193;-81
2023/09/17 04:53:43;;;;;;;0.00;0.00;;;;;;;17.58;100.00;100356.00;4985113;28;20237;-80
2023/09/17 04:56:08;;;;;;;0.00;0.00;;;;;;;17.65;100.00;100372.72;4993326;28;20228;-80
2023/09/17 04:58:34;;;;;;;0.00;0.00;;;;;;;17.87;100.00;100369.31;4986515;28;20542;-80
2023/09/17 05:00:59;;;;;;;0.00;0.00;;;;;;;17.58;100.00;100356.81;4985948;28;20185;-81
2023/09/17 05:03:24;;;;;;;0.00;0.00;;;;;;;17.47;100.00;100350.22;4986952;28;20202;-80
2023/09/17 05:05:51;;;;;;;0.00;0.00;;;;;;;17.65;100.00;100362.50;4979891;28;20190;-80
2023/09/17 05:08:18;;;;;;;0.00;0.00;;;;;;;17.74;100.00;100357.59;4983497;28;20202;-82
2023/09/17 05:10:44;;;;;;;0.10;0.10;;;;;;;17.84;100.00;100370.84;4978004;28;20178;-82
2023/09/17 05:13:09;;;;;;;0.00;0.00;;;;;;;17.30;100.00;100350.63;4985399;28;20733;-80
2023/09/17 05:15:35;;;;;;;0.00;0.00;;;;;;;17.53;100.00;100360.66;4984876;28;20186;-80
2023/09/17 05:18:06;;;;;;;0.00;0.00;;;;;;;17.66;100.00;100369.63;4988167;28;20348;-81
2023/09/17 05:20:31;;;;;;;0.00;0.00;;;;;;;17.83;100.00;100371.22;4987969;28;20181;-81
2023/09/17 05:22:56;;;;;;;0.00;0.00;;;;;;;17.97;100.00;100373.47;4986963;28;20287;-81
2023/09/17 05:25:21;;;;;;;0.57;0.53;;;;;;;17.69;100.00;100360.66;4986100;28;20252;-81
2023/09/17 05:27:47;;;;;;;0.00;0.00;;;;;;;17.90;100.00;100370.53;4985126;28;20606;-80
2023/09/17 05:30:13;;;;;;;0.00;0.00;;;;;;;18.00;100.00;100378.28;4989159;28;20276;-80
2023/09/17 05:32:38;;;;;;;0.50;0.50;;;;;;;17.98;99.79;100375.88;4985471;28;20287;-82
2023/09/17 05:35:05;;;;;;;0.00;0.00;;;;;;;18.00;99.35;100378.28;4983808;28;20214;-78
2023/09/17 05:37:31;;;;;;;0.00;0.00;;;;;;;17.71;100.00;100368.56;4981565;28;20216;-78
2023/09/17 05:39:56;;;;;;;0.00;0.00;;;;;;;17.51;100.00;100368.50;4985995;28;20196;-80
2023/09/17 05:42:22;;;;;;;0.00;0.00;;;;;;;17.52;100.00;100372.06;4984210;28;20240;-80
2023/09/17 05:44:47;;;;;;;0.00;0.00;;;;;;;17.70;100.00;100389.88;4985511;28;20558;-80
2023/09/17 05:47:13;;;;;;;0.00;0.00;;;;;;;17.76;100.00;100387.63;4989099;28;20215;-79
2023/09/17 05:49:38;;;;;;;0.00;0.00;;;;;;;17.78;100.00;100399.09;4986645;28;20195;-81
2023/09/17 05:52:04;;;;;;;0.00;0.00;;;;;;;17.99;100.00;100410.66;4976948;28;20190;-82
2023/09/17 05:54:29;;;;;;;0.00;0.00;;;;;;;17.98;100.00;100397.19;4983323;28;20189;-82
2023/09/17 05:56:54;;;;;;;0.00;0.00;;;;;;;18.05;100.00;100402.84;4986232;28;20275;-82
2023/09/17 05:59:19;;;;;;;0.00;0.00;;;;;;;18.13;100.00;100404.63;4983139;28;20201;-83
2023/09/17 06:01:45;;;;;;;0.00;0.00;;;;;;;17.99;100.00;100405.13;4983427;28;20182;-84
2023/09/17 06:04:11;;;;;;;0.00;0.00;;;;;;;17.74;100.00;100387.97;4982583;28;20198;-82
2023/09/17 06:06:36;;;;;;;0.00;0.00;;;;;;;17.93;100.00;100397.47;4975797;28;20186;-82
2023/09/17 06:09:01;;;;;;;0.00;0.00;;;;;;;18.20;100.00;100399.22;4984291;28;20267;-84
2023/09/17 06:11:27;;;;;;;0.00;0.00;;;;;;;18.33;100.00;100397.91;4983735;28;20265;-81
2023/09/17 06:13:52;;;;;;;0.00;0.00;;;;;;;18.49;100.00;100399.78;4981930;28;20177;-81
2023/09/17 06:16:17;;;;;;;0.20;0.20;;;;;;;18.59;100.00;100404.75;4980408;28;20185;-81
2023/09/17 06:18:43;;;;;;;0.00;0.00;;;;;;;18.68;100.00;100411.69;4987263;28;20364;-81
2023/09/17 06:21:08;;;;;;;0.00;0.00;;;;;;;18.62;100.00;100398.47;4983441;28;20227;-82
2023/09/17 06:23:33;;;;;;;0.00;0.00;;;;;;;18.48;100.00;100395.44;4980830;28;20196;-81
2023/09/17 06:25:59;;;;;;;0.10;0.10;;;;;;;18.40;100.00;100388.97;4977759;28;20185;-84
2023/09/17 06:28:25;;;;;;;0.00;0.00;;;;;;;18.47;100.00;100393.81;4984897;28;20205;-85
2023/09/17 06:30:50;;;;;;;0.00;0.00;;;;;;;18.27;100.00;100376.47;4990391;28;20216;-86
2023/09/17 06:33:16;;;;;;;0.00;0.00;;;;;;;18.11;100.00;100376.53;4986988;28;20189;-83
2023/09/17 06:35:41;;;;;;;0.10;0.10;;;;;;;18.25;100.00;100392.63;4988834;28;20213;-84
2023/09/17 06:38:06;;;;;;;0.00;0.00;;;;;;;18.24;100.00;100383.53;4989447;28;20204;-84
2023/09/17 06:40:32;;;;;;;0.00;0.00;;;;;;;18.26;100.00;100394.22;4981276;28;20181;-84
2023/09/17 06:42:57;;;;;;;0.00;0.00;;;;;;;18.31;100.00;100389.19;4986813;28;20181;-84
2023/09/17 06:45:22;;;;;;;0.00;0.00;;;;;;;18.41;100.00;100387.81;4991266;28;20185;-83
2023/09/17 06:47:49;;;;;;;0.00;0.00;;;;;;;18.38;100.00;100394.06;4979858;28;20702;-83
2023/09/17 06:50:14;;;;;;;0.00;0.00;;;;;;;18.38;100.00;100392.09;4977281;28;20303;-83
2023/09/17 06:52:40;;;;;;;0.00;0.00;;;;;;;18.41;100.00;100396.91;4975731;28;20202;-84
2023/09/17 06:55:05;;;;;;;0.40;0.40;;;;;;;18.36;100.00;100394.41;4975140;28;20717;-83
2023/09/17 06:57:31;;;;;;;0.00;0.00;;;;;;;18.56;100.00;100400.75;4968948;28;20203;-83
2023/09/17 06:59:57;;;;;;;0.00;0.00;;;;;;;18.72;100.00;100401.47;4983542;28;20183;-85
2023/09/17 07:02:22;;;;;;;0.10;0.10;;;;;;;18.98;100.00;100408.25;4966423;28;20539;-86
2023/09/17 07:04:48;;;;;;;0.00;0.00;;;;;;;19.12;98.55;100400.19;4955081;28;20711;-86
2023/09/17 07:07:13;;;;;;;0.00;0.00;;;;;;;19.40;97.10;100402.63;4981155;28;20393;-86
2023/09/17 07:09:38;;;;;;;0.00;0.00;;;;;;;19.56;95.62;100391.44;4965191;28;20174;-85
2023/09/17 07:12:04;;;;;;;0.00;0.00;;;;;;;19.59;94.69;100385.94;4973338;28;20277;-86
2023/09/17 07:14:30;;;;;;;0.00;0.00;;;;;;;19.75;93.79;100384.97;4964807;28;20186;-87
2023/09/17 07:16:55;;;;;;;0.00;0.00;;;;;;;19.85;93.22;100384.31;4966150;28;20181;-86
2023/09/17 07:19:20;;;;;;;0.10;0.10;;;;;;;19.91;92.77;100377.25;4975942;28;20360;-87
2023/09/17 07:21:46;;;;;;;0.00;0.00;;;;;;;20.05;93.04;100382.19;4981042;28;20260;-87
2023/09/17 07:24:12;;;;;;;0.53;0.37;;;;;;;20.11;92.10;100384.25;4976431;28;20237;-87
2023/09/17 07:26:37;;;;;;;0.00;0.00;;;;;;;20.32;90.65;100388.47;4977843;28;20186;-86
2023/09/17 07:29:03;;;;;;;0.10;0.10;;;;;;;20.56;88.93;100382.44;4977555;28;20205;-87
2023/09/17 07:31:29;;;;;;;0.10;0.10;;;;;;;20.69;86.63;100377.41;4990274;28;20565;-87
2023/09/17 07:33:54;;;;;;;0.00;0.00;;;;;;;20.89;84.91;100375.22;4986794;28;20185;-87
2023/09/17 07:36:20;;;;;;;0.10;0.10;;;;;;;21.20;84.32;100383.00;4977694;28;20185;-87
2023/09/17 07:38:45;;;;;;;0.10;0.10;;;;;;;21.47;83.44;100391.19;4985354;28;20210;-85
2023/09/17 07:41:11;;;;;;;0.00;0.00;;;;;;;21.81;82.52;100389.00;5010313;22;20235;-76
2023/09/17 07:43:37;;;;;;;0.00;0.00;;;;;;;22.00;80.71;100391.50;5002988;28;20212;-78
2023/09/17 07:46:03;;;;;;;0.07;0.07;;;;;;;22.19;78.65;100388.44;4994784;28;20190;-77
2023/09/17 07:48:29;;;;;;;0.00;0.00;;;;;;;22.44;77.52;100382.16;4996635;28;20186;-78
2023/09/17 07:50:59;;;;;;;0.00;0.00;;;;;;;22.59;77.24;100394.16;4996569;28;20182;-78
2023/09/17 07:53:25;;;;;;;0.00;0.00;;;;;;;22.68;76.38;100386.19;4996438;28;20763;-78
2023/09/17 07:55:51;;;;;;;0.73;0.73;;;;;;;22.69;75.98;100380.22;4997328;28;20206;-79
2023/09/17 07:58:16;;;;;;;0.00;0.00;;;;;;;22.59;75.57;100367.09;4996845;28;20185;-79
2023/09/17 08:00:45;;;;;;;0.00;0.00;;;;;;;22.62;75.97;100371.06;4996605;28;20215;-77
2023/09/17 08:03:15;;;;;;;0.00;0.00;;;;;;;22.66;76.35;100371.88;4995824;28;20207;-78
2023/09/17 08:05:43;;;;;;;0.00;0.00;;;;;;;22.39;76.88;100361.06;4996093;28;20254;-79
2023/09/17 08:08:08;;;;;;;0.00;0.00;;;;;;;22.45;77.16;100353.94;4997174;28;20186;-79
2023/09/17 08:10:36;;;;;;;0.10;0.10;;;;;;;22.52;77.34;100358.69;4996670;28;20286;-78
2023/09/17 08:13:02;;;;;;;0.00;0.00;;;;;;;22.56;76.63;100356.72;4995227;28;20231;-79
2023/09/17 08:15:30;;;;;;;0.20;0.20;;;;;;;22.83;76.11;100363.56;4995598;28;20191;-79
2023/09/17 08:17:56;;;;;;;0.60;0.60;;;;;;;22.53;75.89;100347.16;4995195;28;20204;-79
2023/09/17 08:20:22;;;;;;;0.90;0.60;;;;;;;22.44;76.46;100343.19;4996387;28;20186;-78
2023/09/17 08:22:49;;;;;;;0.00;0.00;;;;;;;22.66;77.15;100361.50;4994836;28;20202;-79
2023/09/17 08:25:15;;;;;;;0.73;0.73;;;;;;;22.60;76.74;100354.75;4996068;28;20214;-78
2023/09/17 08:27:40;;;;;;;0.20;0.20;;;;;;;22.63;77.28;100355.94;4996574;28;20193;-79
2023/09/17 08:30:11;;;;;;;0.00;0.00;;;;;;;22.48;77.79;100350.34;4995083;28;20185;-79
2023/09/17 08:32:37;;;;;;;0.17;0.17;;;;;;;22.53;78.62;100358.31;4997128;28;20211;-78
2023/09/17 08:35:03;;;;;;;0.00;0.00;;;;;;;22.78;79.20;100372.28;4996881;28;20213;-79
2023/09/17 08:37:29;;;;;;;0.10;0.10;;;;;;;22.89;78.57;100363.97;4995928;28;20654;-79
2023/09/17 08:39:54;;;;;;;0.00;0.00;;;;;;;23.06;78.51;100362.38;4995543;28;20201;-78
2023/09/17 08:42:21;;;;;;;0.00;0.00;;;;;;;23.19;78.06;100360.00;4994413;28;20754;-79
2023/09/17 08:44:48;;;;;;;0.00;0.00;;;;;;;23.27;78.40;100361.56;4994898;28;20265;-79
2023/09/17 08:47:13;;;;;;;0.00;0.00;;;;;;;23.39;78.66;100364.75;4996170;28;20552;-79
2023/09/17 08:49:38;;;;;;;0.10;0.10;;;;;;;23.41;78.15;100355.97;4994162;28;20186;-79
2023/09/17 08:52:07;;;;;;;0.00;0.00;;;;;;;23.44;78.35;100360.78;4996156;28;20605;-79
2023/09/17 08:54:40;;;;;;;0.43;0.43;;;;;;;23.48;78.54;100360.75;4995968;28;20245;-79
2023/09/17 08:57:08;;;;;;;0.00;0.00;;;;;;;23.52;78.65;100353.97;4996056;28;20199;-77
2023/09/17 08:59:40;;;;;;;0.00;0.00;;;;;;;23.64;78.43;100359.16;4993827;28;20214;-79
2023/09/17 09:02:15;;;;;;;0.00;0.00;;;;;;;23.67;77.27;100347.19;4992601;28;20540;-79
2023/09/17 09:04:41;;;;;;;0.00;0.00;;;;;;;23.68;76.35;100345.97;4985002;28;20233;-79
2023/09/17 09:07:07;;;;;;;0.00;0.00;;;;;;;23.99;75.58;100360.22;4979174;28;20181;-77
2023/09/17 09:09:36;;;;;;;0.00;0.00;;;;;;;24.08;75.21;100348.63;4982208;28;20193;-79
2023/09/17 09:12:01;;;;;;;0.00;0.00;;;;;;;23.15;76.22;100304.25;4985193;28;20181;-79
2023/09/17 09:14:27;;;;;;;0.00;0.00;;;;;;;22.99;79.01;100324.16;4985616;28;20265;-78
2023/09/17 09:16:54;;;;;;;0.00;0.00;;;;;;;22.71;80.54;100316.56;4991183;28;20190;-78
2023/09/17 09:19:19;;;;;;;0.00;0.00;;;;;;;22.38;82.65;100300.19;4983018;28;20178;-79
2023/09/17 09:21:45;;;;;;;0.00;0.00;;;;;;;22.37;83.26;100315.31;4984431;28;20175;-79
2023/09/17 09:24:10;;;;;;;0.00;0.00;;;;;;;22.45;83.61;100316.94;4985063;28;20244;-79
2023/09/17 09:26:37;;;;;;;0.00;0.00;;;;;;;22.45;82.74;100312.16;4984178;28;20188;-78
2023/09/17 09:29:04;;;;;;;0.10;0.10;;;;;;;22.70;83.45;100328.88;4983764;28;20268;-75
2023/09/17 09:31:30;;;;;;;0.00;0.00;;;;;;;22.90;84.60;100332.13;4985251;28;20271;-78
2023/09/17 09:33:59;;;;;;;0.00;0.00;;;;;;;23.03;85.13;100324.16;4984458;28;20210;-79
2023/09/17 09:36:27;;;;;;;0.00;0.00;;;;;;;23.05;84.05;100321.78;4985481;28;20240;-78
2023/09/17 09:38:54;;;;;;;0.00;0.00;;;;;;;23.13;83.80;100307.41;4982868;28;20182;-78
2023/09/17 09:41:19;;;;;;;0.00;0.00;;;;;;;23.28;82.55;100324.13;4984253;28;20196;-78
2023/09/17 09:43:45;;;;;;;0.00;0.00;;;;;;;23.21;82.43;100316.56;4983482;28;20574;-78
2023/09/17 09:46:11;;;;;;;0.00;0.00;;;;;;;23.26;80.52;100310.59;4984072;28;20651;-77
2023/09/17 09:48:37;;;;;;;0.20;0.20;;;;;;;23.11;79.67;100298.66;4984665;28;20212;-78
2023/09/17 09:51:03;;;;;;;0.60;0.60;;;;;;;23.30;79.59;100303.03;4981995;28;20227;-77
2023/09/17 09:53:29;;;;;;;0.00;0.00;;;;;;;23.32;78.61;100300.63;4985039;28;20232;-78
2023/09/17 09:55:55;;;;;;;0.00;0.00;;;;;;;23.42;78.41;100301.78;4985794;28;20196;-78
2023/09/17 09:58:21;;;;;;;0.20;0.20;;;;;;;23.58;79.02;100313.34;4985894;28;20552;-78
2023/09/17 10:00:46;;;;;;;0.00;0.00;;;;;;;23.74;78.68;100310.91;4991690;28;20230;-78
2023/09/17 10:03:14;;;;;;;0.50;0.50;;;;;;;23.66;78.71;100297.38;4992086;28;20351;-78
2023/09/17 10:05:40;;;;;;;0.40;0.40;;;;;;;23.52;77.33;100287.03;4993205;28;20264;-77
2023/09/17 10:08:10;;;;;;;0.40;0.40;;;;;;;23.83;77.64;100296.50;4993510;28;20683;-78
2023/09/17 10:10:36;;;;;;;0.00;0.00;;;;;;;23.82;78.01;100296.91;4992936;28;20652;-78
2023/09/17 10:13:05;;;;;;;0.00;0.00;;;;;;;24.04;78.47;100306.78;4991960;28;20228;-78
2023/09/17 10:15:32;;;;;;;1.43;1.33;;;;;;;23.76;78.00;100277.03;4992095;28;20216;-78
2023/09/17 10:17:59;;;;;;;0.07;0.07;;;;;;;23.99;76.68;100285.66;4993513;28;20196;-79
2023/09/17 10:20:25;;;;;;;0.20;0.20;;;;;;;24.28;76.40;100296.66;4991906;28;20192;-78
2023/09/17 10:22:52;;;;;;;0.00;0.00;;;;;;;24.27;74.87;100279.13;4993197;28;20235;-78
2023/09/17 10:25:18;;;;;;;0.03;0.03;;;;;;;24.10;74.33;100265.28;4992857;28;20208;-77
2023/09/17 10:27:46;;;;;;;0.10;0.10;;;;;;;24.14;74.05;100266.84;4993171;28;20267;-78
2023/09/17 10:30:12;;;;;;;0.00;0.00;;;;;;;24.32;73.93;100273.16;4993825;28;20177;-78
2023/09/17 10:32:39;;;;;;;0.20;0.20;;;;;;;24.48;73.56;100278.22;4994070;28;20257;-78
2023/09/17 10:35:06;;;;;;;0.00;0.00;;;;;;;24.59;71.87;100266.94;4993625;28;20182;-78
2023/09/17 10:37:32;;;;;;;0.33;0.33;;;;;;;24.77;72.52;100278.00;4992312;28;20557;-78
2023/09/17 10:40:00;;;;;;;0.30;0.30;;;;;;;24.99;70.67;100275.81;4992971;28;20279;-77
2023/09/17 10:42:26;;;;;;;0.10;0.10;;;;;;;25.19;69.82;100272.03;4992114;28;20203;-77
2023/09/17 10:44:55;;;;;;;0.00;0.00;;;;;;;25.21;69.96;100280.03;4993316;28;20212;-78
2023/09/17 10:47:21;;;;;;;0.00;0.00;;;;;;;25.11;68.58;100252.94;4993591;28;20192;-78
2023/09/17 10:49:47;;;;;;;0.00;0.00;;;;;;;25.08;69.60;100259.38;4992495;28;20647;-78
2023/09/17 10:52:13;;;;;;;0.10;0.10;;;;;;;24.98;69.61;100268.63;4993501;28;20252;-78
2023/09/17 10:54:38;;;;;;;0.00;0.00;;;;;;;25.09;69.38;100258.16;4992857;28;20181;-76
2023/09/17 10:57:11;;;;;;;0.20;0.20;;;;;;;24.97;68.53;100251.06;4992018;28;20196;-77
2023/09/17 10:59:37;;;;;;;0.00;0.00;;;;;;;24.88;70.20;100257.16;4992062;28;20707;-78
2023/09/17 11:02:05;;;;;;;0.00;0.00;;;;;;;24.97;69.23;100253.84;4993163;28;20193;-77
2023/09/17 11:04:31;;;;;;;0.00;0.00;;;;;;;25.04;68.70;100255.84;4992950;28;20223;-78
2023/09/17 11:07:00;;;;;;;0.60;0.60;;;;;;;25.17;68.47;100262.47;4991918;28;20257;-77
2023/09/17 11:09:26;;;;;;;0.87;0.87;;;;;;;25.19;68.81;100265.66;4992548;28;20182;-77
2023/09/17 11:11:52;;;;;;;0.13;0.13;;;;;;;25.33;68.30;100267.50;4992776;28;20191;-78
2023/09/17 11:14:17;;;;;;;0.00;0.00;;;;;;;25.33;68.66;100267.50;4993701;28;20197;-78
2023/09/17 11:16:47;;;;;;;0.10;0.10;;;;;;;25.50;68.35;100272.91;4993693;28;20232;-78